Time;durP1;ratioP1;P1;durP2;ratioP2;P2;SDS_P1;SDS_P2;PMS_P1;PMS_P2;Temp;Humidity;BMP_temperature;BMP_pressure;BME280_temperature;BME280_humidity;BME280_pressure;Samples;Min_cycle;Max_cycle;Signal;HPM_P1;HPM_P2
2021/05/28 00:01:21;;;;;;;28.97;9.27;;;;;;;17.93;59.97;100337.84;4918926;29;20128;-63
2021/05/28 00:03:48;;;;;;;24.63;8.40;;;;;;;17.90;59.91;100341.34;4918890;29;20130;-63
2021/05/28 00:06:15;;;;;;;29.47;9.13;;;;;;;18.09;60.31;100362.78;4918828;29;20131;-62
2021/05/28 00:08:42;;;;;;;21.90;9.03;;;;;;;18.04;60.11;100363.75;4918669;29;20091;-63
2021/05/28 00:11:09;;;;;;;23.50;8.10;;;;;;;18.06;60.32;100364.25;4918981;29;20123;-63
2021/05/28 00:13:36;;;;;;;27.50;7.30;;;;;;;18.05;60.42;100361.75;4918712;29;20131;-63
2021/05/28 00:16:04;;;;;;;20.37;7.60;;;;;;;18.04;60.45;100358.09;4918697;29;20136;-63
2021/05/28 00:18:31;;;;;;;26.87;7.97;;;;;;;17.99;60.40;100361.13;4918510;29;20128;-63
2021/05/28 00:20:58;;;;;;;24.73;8.47;;;;;;;18.07;60.42;100370.75;4918842;29;20079;-62
2021/05/28 00:23:25;;;;;;;23.50;9.50;;;;;;;18.08;60.40;100366.75;4918613;29;20139;-62
2021/05/28 00:25:52;;;;;;;25.65;8.85;;;;;;;18.08;60.50;100364.75;4918741;29;20561;-62
2021/05/28 00:28:19;;;;;;;29.33;8.33;;;;;;;18.03;60.50;100356.47;4918545;29;20058;-62
2021/05/28 00:30:45;;;;;;;30.10;8.17;;;;;;;18.08;60.51;100375.22;4918688;29;20075;-60
2021/05/28 00:33:13;;;;;;;21.20;8.43;;;;;;;18.08;60.49;100369.56;4918413;29;20087;-61
2021/05/28 00:35:39;;;;;;;27.73;8.67;;;;;;;18.07;60.58;100368.75;4918615;29;20454;-61
2021/05/28 00:38:06;;;;;;;21.10;7.90;;;;;;;18.11;60.45;100369.72;4918280;29;20084;-60
2021/05/28 00:40:33;;;;;;;23.05;7.40;;;;;;;17.98;60.71;100351.81;4918011;29;20147;-60
2021/05/28 00:43:00;;;;;;;19.07;6.67;;;;;;;18.13;60.96;100364.59;4918223;29;20091;-60
2021/05/28 00:45:27;;;;;;;27.48;8.18;;;;;;;18.08;61.13;100356.25;4918156;29;20135;-61
2021/05/28 00:47:54;;;;;;;17.20;7.40;;;;;;;17.76;61.25;100310.47;4918402;29;20090;-61
2021/05/28 00:50:21;;;;;;;25.10;7.60;;;;;;;17.94;61.17;100339.50;4918021;29;20059;-61
2021/05/28 00:52:56;;;;;;;21.77;7.83;;;;;;;18.24;60.97;100360.22;4918334;29;20382;-61
2021/05/28 00:55:25;;;;;;;19.25;6.57;;;;;;;18.31;60.90;100370.19;4917920;29;20052;-61
2021/05/28 00:57:54;;;;;;;18.23;6.38;;;;;;;18.26;60.87;100364.72;4917809;29;20048;-61
2021/05/28 01:00:26;;;;;;;14.75;6.07;;;;;;;18.33;60.68;100367.88;4917680;29;20052;-63
2021/05/28 01:02:54;;;;;;;17.25;6.80;;;;;;;18.19;60.48;100351.94;4918566;29;20408;-64
2021/05/28 01:05:25;;;;;;;19.00;5.88;;;;;;;18.35;60.64;100382.47;4918062;29;20047;-65
2021/05/28 01:07:52;;;;;;;26.15;6.78;;;;;;;18.30;60.21;100374.19;4917481;29;20123;-71
2021/05/28 01:10:19;;;;;;;12.07;5.00;;;;;;;18.30;60.42;100371.38;4900896;29;20130;-71
2021/05/28 01:12:46;;;;;;;23.05;5.78;;;;;;;18.12;60.44;100343.16;4917576;29;20131;-61
2021/05/28 01:15:13;;;;;;;20.95;5.82;;;;;;;18.33;60.35;100373.50;4917482;29;20147;-61
2021/05/28 01:17:40;;;;;;;15.38;5.80;;;;;;;18.21;60.26;100343.09;4900565;29;20058;-61
2021/05/28 01:20:10;;;;;;;25.90;6.10;;;;;;;18.30;60.12;100371.38;4917716;29;20082;-61
2021/05/28 01:22:38;;;;;;;19.23;5.28;;;;;;;18.17;60.26;100364.72;4917702;29;20119;-61
2021/05/28 01:25:06;;;;;;;12.73;5.38;;;;;;;18.22;60.20;100368.22;4917433;29;20055;-61
2021/05/28 01:27:34;;;;;;;25.30;6.10;;;;;;;18.21;60.22;100377.84;4917709;29;20086;-61
2021/05/28 01:30:02;;;;;;;18.13;5.23;;;;;;;18.08;60.24;100350.59;4917616;29;20467;-62
2021/05/28 01:32:29;;;;;;;19.55;6.25;;;;;;;18.24;60.34;100370.69;4917355;29;20079;-63
2021/05/28 01:34:56;;;;;;;15.50;5.18;;;;;;;18.26;59.95;100373.22;4917330;29;20052;-63
2021/05/28 01:37:23;;;;;;;21.40;5.00;;;;;;;18.23;59.97;100369.03;4917043;29;20161;-63
2021/05/28 01:39:52;;;;;;;21.65;7.22;;;;;;;18.28;60.21;100373.69;4900752;29;20078;-62
2021/05/28 01:42:20;;;;;;;19.17;5.57;;;;;;;18.28;60.32;100365.19;4917820;29;20122;-64
2021/05/28 01:44:47;;;;;;;18.48;5.65;;;;;;;18.30;59.91;100368.53;4917133;29;20551;-70
2021/05/28 01:47:14;;;;;;;13.43;5.22;;;;;;;18.20;60.23;100356.41;4917336;29;20126;-66
2021/05/28 01:49:41;;;;;;;14.33;6.90;;;;;;;18.33;60.08;100379.16;4917011;29;20084;-62
2021/05/28 01:52:09;;;;;;;14.27;5.68;;;;;;;18.27;59.82;100374.84;4901043;29;20127;-61
2021/05/28 01:54:40;;;;;;;18.90;4.45;;;;;;;18.30;60.00;100377.00;4917962;29;20079;-61
2021/05/28 01:57:09;;;;;;;19.83;6.88;;;;;;;18.32;59.91;100371.84;4916860;29;20588;-64
2021/05/28 01:59:36;;;;;;;16.58;5.28;;;;;;;18.12;60.33;100353.59;4917095;29;20408;-67
2021/05/28 02:02:03;;;;;;;12.63;5.63;;;;;;;18.18;60.03;100358.72;4917117;29;20102;-74
2021/05/28 02:04:30;;;;;;;16.05;6.07;;;;;;;18.34;59.92;100384.47;4907154;29;20079;-65
2021/05/28 02:06:57;;;;;;;18.73;5.65;;;;;;;18.38;59.91;100385.44;4917205;29;20144;-68
2021/05/28 02:09:24;;;;;;;19.17;6.70;;;;;;;18.39;60.01;100383.44;4916866;29;20465;-68
2021/05/28 02:11:51;;;;;;;13.00;5.40;;;;;;;18.37;60.26;100380.16;4917003;29;20076;-67
2021/05/28 02:14:18;;;;;;;25.10;6.77;;;;;;;18.34;60.03;100383.66;4916632;29;20084;-67
2021/05/28 02:16:45;;;;;;;15.50;6.15;;;;;;;18.12;60.28;100345.97;4917702;29;20080;-67
2021/05/28 02:19:12;;;;;;;23.20;6.10;;;;;;;18.33;60.20;100376.34;4917062;29;20386;-66
2021/05/28 02:21:39;;;;;;;18.95;6.22;;;;;;;18.32;60.10;100378.31;4920590;29;20135;-66
2021/05/28 02:24:11;;;;;;;25.10;6.80;;;;;;;18.33;60.16;100370.69;4921020;29;20468;-66
2021/05/28 02:26:39;;;;;;;15.47;6.20;;;;;;;17.91;60.29;100299.78;4920722;29;20135;-72
2021/05/28 02:29:06;;;;;;;14.55;6.68;;;;;;;18.29;60.48;100361.19;4920455;29;20136;-64
2021/05/28 02:31:33;;;;;;;21.65;6.57;;;;;;;18.36;60.37;100370.84;4920813;29;20134;-63
2021/05/28 02:34:00;;;;;;;20.05;6.38;;;;;;;18.24;60.06;100348.91;4920440;29;20052;-63
2021/05/28 02:36:27;;;;;;;15.82;5.70;;;;;;;18.35;60.36;100376.81;4920325;29;20134;-64
2021/05/28 02:38:54;;;;;;;26.38;7.30;;;;;;;18.27;60.10;100358.72;4920345;29;20080;-67
2021/05/28 02:41:21;;;;;;;24.27;6.53;;;;;;;18.20;60.34;100342.28;4920181;29;20092;-67
2021/05/28 02:43:48;;;;;;;17.77;6.05;;;;;;;18.29;60.23;100355.53;4920606;29;20405;-67
2021/05/28 02:46:16;;;;;;;19.27;5.75;;;;;;;18.40;60.38;100368.16;4920381;29;20071;-67
2021/05/28 02:48:43;;;;;;;19.63;7.60;;;;;;;18.45;60.36;100377.28;4920122;29;20131;-67
2021/05/28 02:51:12;;;;;;;18.55;5.75;;;;;;;18.42;59.96;100363.00;4920493;29;20048;-66
2021/05/28 02:53:39;;;;;;;16.60;7.32;;;;;;;18.41;60.08;100369.81;4920314;29;20465;-64
2021/05/28 02:56:06;;;;;;;18.30;6.10;;;;;;;18.41;60.12;100365.00;4920099;29;20131;-63
2021/05/28 02:58:33;;;;;;;15.05;7.10;;;;;;;18.06;60.01;100296.44;4919957;29;20509;-66
2021/05/28 03:01:00;;;;;;;21.27;8.32;;;;;;;18.42;60.26;100352.50;4920168;29;20233;-66
2021/05/28 03:03:27;;;;;;;12.65;6.10;;;;;;;18.47;60.47;100362.81;4919991;29;20132;-66
2021/05/28 03:05:54;;;;;;;14.18;5.50;;;;;;;18.37;60.52;100354.72;4903197;29;20048;-65
2021/05/28 03:08:21;;;;;;;17.10;6.80;;;;;;;18.33;60.30;100359.38;4920208;29;20103;-65
2021/05/28 03:10:48;;;;;;;16.77;5.45;;;;;;;18.23;60.42;100354.91;4919899;29;20131;-65
2021/05/28 03:13:15;;;;;;;23.20;6.50;;;;;;;18.09;60.22;100355.13;4920024;29;20473;-67
2021/05/28 03:15:42;;;;;;;14.10;5.75;;;;;;;17.93;60.92;100356.81;4919581;29;20560;-66
2021/05/28 03:18:16;;;;;;;19.13;5.55;;;;;;;17.77;60.71;100334.72;4919985;29;20478;-65
2021/05/28 03:20:47;;;;;;;18.90;5.25;;;;;;;17.78;61.14;100346.88;4919562;29;20094;-64
2021/05/28 03:23:14;;;;;;;17.08;6.28;;;;;;;17.61;60.98;100333.56;4919464;29;20069;-63
2021/05/28 03:25:43;;;;;;;18.05;6.80;;;;;;;17.72;61.25;100354.63;4919618;29;20147;-63
2021/05/28 03:28:10;;;;;;;20.65;5.65;;;;;;;17.64;61.15;100326.41;4919810;29;20131;-63
2021/05/28 03:30:37;;;;;;;18.50;5.90;;;;;;;17.82;61.10;100347.03;4918802;29;20143;-61
2021/05/28 03:33:05;;;;;;;18.70;5.63;;;;;;;17.73;61.22;100342.16;4919545;29;20131;-59
2021/05/28 03:35:32;;;;;;;17.75;6.75;;;;;;;17.72;61.32;100346.16;4919699;29;20578;-61
2021/05/28 03:37:59;;;;;;;18.43;6.73;;;;;;;17.62;61.54;100331.56;4902684;29;20529;-61
2021/05/28 03:40:26;;;;;;;15.98;6.80;;;;;;;17.70;61.19;100342.84;4919424;29;20092;-59
2021/05/28 03:42:53;;;;;;;18.30;6.60;;;;;;;17.63;61.94;100345.34;4919266;29;20076;-58
2021/05/28 03:45:20;;;;;;;22.88;6.88;;;;;;;17.51;62.07;100342.38;4919165;29;20139;-58
2021/05/28 03:47:47;;;;;;;21.97;6.90;;;;;;;17.47;61.99;100338.53;4919598;29;20076;-59
2021/05/28 03:50:14;;;;;;;20.33;7.13;;;;;;;17.51;61.79;100331.06;4919118;29;20131;-60
2021/05/28 03:52:41;;;;;;;22.53;7.30;;;;;;;17.38;61.93;100309.50;4919029;29;20052;-59
2021/05/28 03:55:09;;;;;;;23.03;6.33;;;;;;;17.58;61.99;100336.22;4919278;29;20420;-58
2021/05/28 03:57:36;;;;;;;21.67;7.20;;;;;;;17.54;62.26;100321.94;4919313;29;20127;-59
2021/05/28 04:00:04;;;;;;;20.47;7.50;;;;;;;17.77;61.75;100331.06;4918752;29;20139;-59
2021/05/28 04:02:30;;;;;;;13.63;6.43;;;;;;;17.69;61.60;100317.75;4918971;29;20476;-59
2021/05/28 04:04:57;;;;;;;17.60;7.37;;;;;;;17.83;61.32;100331.72;4918734;29;20139;-58
2021/05/28 04:07:27;;;;;;;12.25;5.82;;;;;;;17.94;61.74;100335.84;4919153;29;20499;-59
2021/05/28 04:09:54;;;;;;;16.05;5.88;;;;;;;17.96;61.51;100333.53;4918761;29;20135;-58
2021/05/28 04:12:20;;;;;;;21.50;6.68;;;;;;;18.05;61.64;100340.00;4918684;29;20079;-59
2021/05/28 04:14:47;;;;;;;28.35;7.20;;;;;;;18.07;61.39;100331.19;4918715;29;20135;-59
2021/05/28 04:17:14;;;;;;;16.33;6.60;;;;;;;17.92;61.58;100324.91;4918742;29;20426;-59
2021/05/28 04:19:41;;;;;;;18.17;7.30;;;;;;;17.85;61.27;100321.75;4918576;29;20143;-58
2021/05/28 04:22:08;;;;;;;20.88;5.25;;;;;;;17.85;61.30;100335.06;4918819;29;20079;-59
2021/05/28 04:24:35;;;;;;;18.73;6.88;;;;;;;17.90;61.39;100338.53;4918535;29;20540;-58
2021/05/28 04:27:02;;;;;;;17.52;7.63;;;;;;;17.95;61.41;100346.00;4918542;29;20138;-58
2021/05/28 04:29:29;;;;;;;16.10;5.93;;;;;;;17.83;61.54;100343.03;4918275;29;20048;-58
2021/05/28 04:31:55;;;;;;;14.70;6.37;;;;;;;17.85;61.15;100346.38;4918656;29;20052;-57
2021/05/28 04:34:23;;;;;;;22.73;6.57;;;;;;;17.72;61.28;100353.81;4918330;29;20139;-58
2021/05/28 04:36:50;;;;;;;19.55;6.80;;;;;;;17.73;61.10;100355.47;4918545;29;20079;-58
2021/05/28 04:39:16;;;;;;;19.67;6.68;;;;;;;17.77;61.09;100365.78;4918482;29;20076;-57
2021/05/28 04:41:44;;;;;;;14.57;6.30;;;;;;;17.67;61.32;100342.66;4918115;29;20071;-58
2021/05/28 04:44:11;;;;;;;16.50;5.90;;;;;;;17.81;60.99;100365.13;4901021;29;20058;-59
2021/05/28 04:46:38;;;;;;;15.53;5.87;;;;;;;17.84;61.35;100351.16;4918082;29;20139;-59
2021/05/28 04:49:05;;;;;;;18.80;5.97;;;;;;;17.82;61.29;100349.84;4918355;29;20072;-59
2021/05/28 04:52:02;;;;;;;16.40;7.53;;;;;;;17.75;61.17;100348.31;4918018;29;20489;-59
2021/05/28 04:54:29;;;;;;;22.27;7.47;;;;;;;17.72;61.21;100348.16;4918301;29;20115;-59
2021/05/28 04:56:56;;;;;;;19.30;6.15;;;;;;;17.75;61.40;100351.16;4917853;29;20079;-59
2021/05/28 04:59:22;;;;;;;18.97;6.60;;;;;;;17.69;61.55;100349.66;4917896;29;20480;-62
2021/05/28 05:01:49;;;;;;;19.52;6.25;;;;;;;17.61;61.95;100358.97;4917833;29;20604;-62
2021/05/28 05:04:16;;;;;;;15.57;6.57;;;;;;;17.36;61.61;100321.09;4918095;29;20076;-62
2021/05/28 05:06:43;;;;;;;23.98;6.65;;;;;;;17.63;61.42;100350.16;4917789;29;20139;-62
2021/05/28 05:09:10;;;;;;;20.38;7.28;;;;;;;17.56;61.90;100356.31;4917717;29;20095;-62
2021/05/28 05:11:37;;;;;;;26.97;8.03;;;;;;;17.51;61.97;100337.56;4918549;29;20130;-62
2021/05/28 05:14:04;;;;;;;22.83;6.67;;;;;;;17.34;62.09;100331.91;4900962;29;20139;-63
2021/05/28 05:16:31;;;;;;;22.17;7.20;;;;;;;17.50;61.91;100357.63;4917414;29;20131;-62
2021/05/28 05:19:11;;;;;;;21.38;6.45;;;;;;;17.38;62.59;100343.34;4917824;29;20070;-61
2021/05/28 05:21:38;;;;;;;25.67;7.40;;;;;;;17.37;62.23;100348.19;4917373;29;20134;-63
2021/05/28 05:24:06;;;;;;;24.40;7.20;;;;;;;17.12;62.69;100313.13;4917368;29;20079;-59
2021/05/28 05:26:33;;;;;;;24.93;8.27;;;;;;;17.00;62.72;100293.19;4917757;29;20127;-68
2021/05/28 05:29:00;;;;;;;18.83;7.00;;;;;;;17.13;63.20;100322.41;4917312;29;20089;-66
2021/05/28 05:31:27;;;;;;;20.97;6.73;;;;;;;17.20;63.04;100331.22;4917661;29;20075;-64
2021/05/28 05:33:53;;;;;;;16.40;6.37;;;;;;;17.18;62.62;100328.72;4917351;29;20083;-59
2021/05/28 05:36:21;;;;;;;35.40;8.93;;;;;;;17.03;63.28;100306.66;4917198;29;20083;-63
2021/05/28 05:38:48;;;;;;;19.90;7.53;;;;;;;16.96;63.56;100306.31;4917515;29;20126;-60
2021/05/28 05:41:15;;;;;;;23.17;8.10;;;;;;;16.93;62.91;100295.69;4915878;29;20052;-60
2021/05/28 05:43:42;;;;;;;21.40;7.13;;;;;;;16.89;63.24;100320.03;4917428;29;20127;-61
2021/05/28 05:46:09;;;;;;;19.77;7.60;;;;;;;16.56;63.46;100255.59;4918089;29;20129;-60
2021/05/28 05:48:36;;;;;;;21.17;7.53;;;;;;;16.92;63.54;100325.03;4916823;29;20147;-62
2021/05/28 05:51:07;;;;;;;19.07;7.67;;;;;;;17.00;63.17;100332.69;4916993;29;20083;-60
2021/05/28 05:53:33;;;;;;;16.77;7.47;;;;;;;16.91;63.57;100340.31;4917138;29;20158;-60
2021/05/28 05:56:01;;;;;;;18.73;7.57;;;;;;;16.88;63.53;100341.78;4916856;29;20071;-61
2021/05/28 05:58:27;;;;;;;15.63;6.97;;;;;;;16.81;63.73;100339.44;4916708;29;20048;-60
2021/05/28 06:00:54;;;;;;;24.67;7.70;;;;;;;16.87;63.96;100333.66;4917439;29;20060;-61
2021/05/28 06:03:21;;;;;;;26.30;7.63;;;;;;;16.95;63.45;100330.03;4916997;29;20044;-60
2021/05/28 06:05:48;;;;;;;22.83;9.23;;;;;;;17.19;63.53;100344.50;4916586;29;20086;-60
2021/05/28 06:08:15;;;;;;;26.27;8.30;;;;;;;17.24;63.09;100349.16;4916998;29;20048;-62
2021/05/28 06:10:42;;;;;;;26.23;7.40;;;;;;;17.43;62.91;100360.13;4916620;29;20090;-61
2021/05/28 06:13:09;;;;;;;16.75;7.90;;;;;;;17.43;62.92;100375.06;4916549;29;20073;-64
2021/05/28 06:15:36;;;;;;;17.97;7.13;;;;;;;17.36;62.82;100373.91;4916487;29;20143;-62
2021/05/28 06:18:05;;;;;;;18.07;7.17;;;;;;;17.26;63.06;100381.53;4899927;29;20103;-61
2021/05/28 06:20:32;;;;;;;31.33;9.93;;;;;;;17.35;63.03;100390.00;4916968;29;20111;-62
2021/05/28 06:22:59;;;;;;;26.47;9.23;;;;;;;17.38;62.73;100388.53;4916469;29;20071;-62
2021/05/28 06:25:29;;;;;;;21.70;10.00;;;;;;;17.47;62.83;100381.72;4916485;29;20146;-62
2021/05/28 06:27:56;;;;;;;19.48;8.45;;;;;;;17.43;63.01;100386.34;4916708;29;20157;-62
2021/05/28 06:30:23;;;;;;;20.37;7.90;;;;;;;17.44;63.24;100392.84;4916493;29;20072;-62
2021/05/28 06:32:50;;;;;;;23.58;8.25;;;;;;;17.47;62.94;100386.50;4916398;29;20100;-62
2021/05/28 06:35:17;;;;;;;20.77;9.50;;;;;;;17.57;62.75;100391.84;4916727;29;20126;-63
2021/05/28 06:37:44;;;;;;;20.10;8.13;;;;;;;17.62;62.65;100386.03;4916363;29;20130;-63
2021/05/28 06:40:11;;;;;;;14.50;6.43;;;;;;;17.64;62.98;100380.91;4916567;29;20467;-62
2021/05/28 06:42:39;;;;;;;20.03;7.60;;;;;;;17.49;63.34;100387.84;4916154;29;20107;-62
2021/05/28 06:45:07;;;;;;;16.70;7.75;;;;;;;17.46;63.31;100385.69;4916320;29;20083;-62
2021/05/28 06:47:33;;;;;;;22.50;7.75;;;;;;;17.17;63.45;100363.75;4916168;29;20056;-62
2021/05/28 06:50:01;;;;;;;17.77;7.20;;;;;;;17.48;63.09;100383.38;4914662;29;20055;-62
2021/05/28 06:52:28;;;;;;;18.45;7.38;;;;;;;17.62;63.02;100388.88;4915908;29;20048;-62
2021/05/28 06:54:54;;;;;;;25.30;8.63;;;;;;;17.82;62.71;100395.03;4914967;29;20143;-62
2021/05/28 06:57:22;;;;;;;24.20;9.27;;;;;;;17.73;62.46;100378.06;4915870;29;20083;-62
2021/05/28 06:59:49;;;;;;;22.63;8.43;;;;;;;17.84;62.49;100385.06;4915853;29;20080;-62
2021/05/28 07:02:16;;;;;;;19.52;8.88;;;;;;;18.22;62.10;100392.81;4916036;29;20139;-62
2021/05/28 07:04:43;;;;;;;24.45;7.57;;;;;;;18.36;62.14;100395.44;4916248;29;20421;-62
2021/05/28 07:07:10;;;;;;;18.05;6.75;;;;;;;18.33;61.86;100401.78;4918224;29;20052;-73
2021/05/28 07:09:41;;;;;;;20.08;10.05;;;;;;;18.28;61.80;100404.78;4919431;29;20052;-67
2021/05/28 07:12:08;;;;;;;18.15;6.78;;;;;;;18.03;61.62;100381.06;4920371;29;20107;-66
2021/05/28 07:14:35;;;;;;;24.70;8.30;;;;;;;18.16;61.91;100403.47;4919331;29;20083;-67
2021/05/28 07:17:01;;;;;;;21.55;8.43;;;;;;;18.29;61.37;100400.78;4919750;29;20568;-67
2021/05/28 07:19:28;;;;;;;15.30;7.13;;;;;;;18.32;61.32;100394.44;4919299;29;20140;-66
2021/05/28 07:21:55;;;;;;;25.38;9.02;;;;;;;18.56;61.50;100400.34;4919205;29;20134;-66
2021/05/28 07:24:22;;;;;;;21.80;8.40;;;;;;;18.39;60.98;100338.22;4902730;29;20449;-66
2021/05/28 07:26:49;;;;;;;25.02;8.55;;;;;;;18.97;60.64;100370.56;4919404;29;20139;-66
2021/05/28 07:29:16;;;;;;;21.20;8.23;;;;;;;19.44;59.90;100363.94;4917890;29;20536;-66
2021/05/28 07:31:43;;;;;;;18.42;8.13;;;;;;;19.82;59.52;100394.97;4918888;29;20052;-66
2021/05/28 07:34:10;;;;;;;14.80;7.15;;;;;;;19.62;59.05;100383.31;4918991;29;20048;-65
2021/05/28 07:36:37;;;;;;;19.17;7.95;;;;;;;19.84;59.20;100403.97;4918860;29;20083;-65
2021/05/28 07:39:05;;;;;;;17.25;7.03;;;;;;;20.16;58.43;100410.84;4919035;29;20131;-66
2021/05/28 07:41:32;;;;;;;19.20;7.40;;;;;;;20.51;58.08;100416.16;4918833;29;20131;-66
2021/05/28 07:43:59;;;;;;;18.70;7.85;;;;;;;20.43;57.53;100400.06;4918827;29;20124;-66
2021/05/28 07:46:26;;;;;;;19.67;7.72;;;;;;;20.48;57.46;100422.53;4902176;29;20143;-66
2021/05/28 07:48:53;;;;;;;19.77;7.25;;;;;;;20.58;57.22;100417.28;4919008;29;20123;-66
2021/05/28 07:51:20;;;;;;;21.55;8.02;;;;;;;20.99;56.77;100409.75;4918666;29;20176;-64
2021/05/28 07:53:47;;;;;;;17.13;7.60;;;;;;;21.53;55.77;100429.34;4918603;29;20048;-65
2021/05/28 07:56:14;;;;;;;16.88;6.80;;;;;;;21.79;55.30;100422.44;4919037;29;20080;-66
2021/05/28 07:58:41;;;;;;;23.55;8.15;;;;;;;22.03;54.01;100390.25;4918349;29;20127;-65
2021/05/28 08:01:08;;;;;;;15.05;7.10;;;;;;;22.59;53.07;100426.38;4918705;29;20048;-65
2021/05/28 08:03:35;;;;;;;18.60;8.48;;;;;;;22.89;52.83;100432.47;4918315;29;20083;-65
2021/05/28 08:06:02;;;;;;;22.38;6.88;;;;;;;23.09;52.31;100439.13;4918525;29;20442;-65
2021/05/28 08:08:28;;;;;;;21.98;7.50;;;;;;;22.78;52.34;100417.97;4918485;29;20144;-65
2021/05/28 08:10:56;;;;;;;21.92;7.88;;;;;;;22.62;52.30;100412.25;4918428;29;20052;-66
2021/05/28 08:13:23;;;;;;;24.02;7.38;;;;;;;22.63;52.35;100421.59;4917331;29;20570;-65
2021/05/28 08:15:50;;;;;;;18.40;7.28;;;;;;;22.38;52.30;100396.16;4918279;29;20123;-66
2021/05/28 08:18:17;;;;;;;17.92;7.68;;;;;;;22.41;52.17;100437.28;4916893;29;20135;-67
2021/05/28 08:20:44;;;;;;;20.40;8.13;;;;;;;22.13;52.41;100423.03;4918839;29;20448;-67
2021/05/28 08:23:10;;;;;;;19.60;7.82;;;;;;;22.14;52.53;100436.06;4918044;29;20088;-66
2021/05/28 08:25:37;;;;;;;25.90;8.70;;;;;;;22.24;52.26;100432.72;4918152;29;20127;-69
2021/05/28 08:28:04;;;;;;;22.17;9.15;;;;;;;22.44;52.44;100440.22;4918146;29;20479;-69
2021/05/28 08:30:31;;;;;;;15.27;6.38;;;;;;;22.82;51.92;100444.50;4917981;29;20083;-69
2021/05/28 08:32:58;;;;;;;15.73;7.47;;;;;;;23.20;51.21;100440.19;4918230;29;20052;-69
2021/05/28 08:35:25;;;;;;;15.18;7.28;;;;;;;23.61;50.44;100426.53;4918084;29;20091;-70
2021/05/28 08:37:52;;;;;;;18.33;7.40;;;;;;;24.28;49.85;100421.50;4916531;29;20151;-68
2021/05/28 08:40:21;;;;;;;18.58;8.32;;;;;;;24.83;48.42;100419.28;4917583;29;20134;-69
2021/05/28 08:42:48;;;;;;;16.60;7.10;;;;;;;25.39;47.11;100419.84;4917546;29;20087;-68
2021/05/28 08:45:15;;;;;;;11.32;6.25;;;;;;;25.57;46.55;100403.75;4917978;29;20119;-68
2021/05/28 08:47:43;;;;;;;15.48;6.60;;;;;;;25.91;46.21;100424.69;4917667;29;20147;-68
2021/05/28 08:50:11;;;;;;;18.88;7.35;;;;;;;26.18;46.15;100419.72;4917809;29;20083;-67
2021/05/28 08:52:38;;;;;;;17.17;7.50;;;;;;;26.58;45.35;100435.38;4901087;29;20135;-68
2021/05/28 08:55:06;;;;;;;18.75;7.43;;;;;;;26.82;44.51;100427.41;4917712;29;20143;-68
2021/05/28 08:57:33;;;;;;;17.77;7.70;;;;;;;27.04;44.18;100429.25;4918001;29;20148;-67
2021/05/28 09:00:00;;;;;;;18.20;7.00;;;;;;;27.33;43.46;100444.69;4917433;29;20540;-67
2021/05/28 09:02:33;;;;;;;14.90;7.43;;;;;;;27.40;43.46;100436.13;4917902;29;20082;-67
2021/05/28 09:05:24;;;;;;;27.20;8.75;;;;;;;27.21;43.33;100429.84;4917447;29;20115;-67
2021/05/28 09:08:01;;;;;;;14.45;7.88;;;;;;;26.74;43.23;100437.19;4915437;29;20111;-67
2021/05/28 09:10:41;;;;;;;14.40;7.13;;;;;;;26.53;43.25;100446.34;4917771;29;20123;-68
2021/05/28 09:13:12;;;;;;;18.90;7.72;;;;;;;26.36;43.29;100424.84;4917710;29;20483;-67
2021/05/28 09:15:42;;;;;;;19.05;7.72;;;;;;;26.25;43.19;100424.72;4917219;29;20135;-68
2021/05/28 09:18:10;;;;;;;22.42;7.70;;;;;;;26.23;43.29;100435.75;4917383;29;20083;-66
2021/05/28 09:20:38;;;;;;;19.20;7.30;;;;;;;26.29;43.25;100433.34;4917276;29;20528;-66
2021/05/28 09:23:19;;;;;;;21.15;8.10;;;;;;;26.69;43.35;100430.56;4917139;29;20139;-66
2021/05/28 09:25:54;;;;;;;19.92;6.95;;;;;;;27.22;42.51;100431.50;4917244;29;20135;-67
2021/05/28 09:28:21;;;;;;;18.58;7.47;;;;;;;27.62;41.60;100436.28;4899950;29;20127;-67
2021/05/28 09:31:03;;;;;;;21.23;7.22;;;;;;;27.83;41.41;100441.38;4917831;29;20458;-66
2021/05/28 09:33:35;;;;;;;22.98;6.97;;;;;;;28.01;41.08;100448.03;4900413;29;20115;-67
2021/05/28 09:36:19;;;;;;;19.95;7.75;;;;;;;27.68;41.91;100439.59;4916996;29;20135;-65
2021/05/28 09:39:06;;;;;;;26.33;7.30;;;;;;;27.71;41.90;100444.53;4915682;29;20127;-66
2021/05/28 09:41:48;;;;;;;23.05;6.80;;;;;;;27.76;41.97;100422.06;4917076;29;20119;-66
2021/05/28 09:44:24;;;;;;;18.00;6.80;;;;;;;28.13;41.67;100437.41;4917202;29;20091;-66
2021/05/28 09:46:57;;;;;;;19.75;7.50;;;;;;;28.45;41.25;100446.19;4900128;29;20135;-66
2021/05/28 09:49:30;;;;;;;26.73;8.02;;;;;;;28.85;40.70;100436.41;4916831;29;20504;-67
2021/05/28 09:52:16;;;;;;;23.95;8.32;;;;;;;29.11;40.21;100438.13;4900151;29;20056;-67
2021/05/28 09:55:00;;;;;;;18.60;7.13;;;;;;;29.43;39.89;100438.09;4916827;29;20131;-65
2021/05/28 09:57:37;;;;;;;16.20;6.90;;;;;;;29.73;39.44;100431.09;4917127;29;20445;-66
2021/05/28 10:00:08;;;;;;;21.73;7.57;;;;;;;29.97;39.19;100432.25;4917034;29;20169;-65
2021/05/28 10:02:43;;;;;;;13.90;6.60;;;;;;;30.21;38.31;100433.44;4916906;29;20098;-66
2021/05/28 10:05:20;;;;;;;20.70;7.82;;;;;;;30.28;37.82;100433.41;4916690;29;20048;-66
2021/05/28 10:07:47;;;;;;;18.88;7.68;;;;;;;29.97;37.20;100430.19;4916665;29;20143;-65
2021/05/28 10:10:16;;;;;;;18.15;7.75;;;;;;;29.59;37.38;100423.31;4916540;29;20123;-65
2021/05/28 10:12:46;;;;;;;14.00;6.57;;;;;;;29.16;38.37;100437.72;4916922;29;20133;-67
2021/05/28 10:15:14;;;;;;;21.88;6.72;;;;;;;29.32;38.97;100451.69;4916483;29;20092;-67
2021/05/28 10:17:41;;;;;;;19.38;7.28;;;;;;;29.45;38.24;100435.66;4916564;29;20079;-67
2021/05/28 10:20:09;;;;;;;16.42;7.05;;;;;;;29.23;38.60;100428.25;4916385;29;20139;-66
2021/05/28 10:22:36;;;;;;;20.30;7.57;;;;;;;29.44;37.85;100431.13;4916424;29;20092;-67
2021/05/28 10:25:06;;;;;;;15.65;6.75;;;;;;;29.43;37.85;100440.97;4916722;29;20076;-67
2021/05/28 10:27:33;;;;;;;20.95;7.55;;;;;;;29.47;38.02;100459.06;4915578;29;20147;-67
2021/05/28 10:30:12;;;;;;;15.05;6.03;;;;;;;29.22;38.47;100452.50;4916585;29;20044;-68
2021/05/28 10:32:39;;;;;;;20.23;6.18;;;;;;;29.15;38.66;100458.25;4899778;29;20086;-68
2021/05/28 10:35:16;;;;;;;22.25;8.95;;;;;;;29.20;38.43;100454.97;4916573;29;20416;-67
2021/05/28 10:37:44;;;;;;;17.23;7.85;;;;;;;29.31;38.15;100452.91;4916615;29;20088;-67
2021/05/28 10:40:28;;;;;;;20.63;7.45;;;;;;;29.25;38.26;100446.75;4916503;29;20052;-66
2021/05/28 10:43:03;;;;;;;17.35;6.93;;;;;;;29.23;38.76;100451.25;4920178;29;20139;-67
2021/05/28 10:45:57;;;;;;;15.98;6.95;;;;;;;29.33;38.54;100433.19;4920481;29;20469;-67
2021/05/28 10:48:37;;;;;;;21.00;7.50;;;;;;;29.69;38.82;100459.06;4919421;29;20044;-67
2021/05/28 10:51:13;;;;;;;18.50;7.70;;;;;;;29.92;37.25;100456.56;4920458;29;20146;-67
2021/05/28 10:54:01;;;;;;;19.63;8.18;;;;;;;29.67;37.79;100447.13;4920397;29;20055;-67
2021/05/28 10:56:35;;;;;;;19.20;7.53;;;;;;;29.88;38.12;100458.63;4919929;29;20079;-67
2021/05/28 10:59:03;;;;;;;22.85;8.77;;;;;;;29.90;37.20;100470.53;4920003;29;20048;-67
2021/05/28 11:01:33;;;;;;;16.48;6.80;;;;;;;29.75;37.76;100460.31;4919927;29;20105;-66
2021/05/28 11:04:11;;;;;;;20.05;7.82;;;;;;;29.66;37.63;100457.84;4920199;29;20405;-66
2021/05/28 11:06:57;;;;;;;19.08;8.10;;;;;;;29.59;37.57;100465.63;4920129;29;20127;-66
2021/05/28 11:09:43;;;;;;;18.40;7.43;;;;;;;29.47;37.70;100472.63;4903656;29;20102;-66
2021/05/28 11:12:15;;;;;;;25.13;8.07;;;;;;;29.44;37.62;100471.41;4919829;29;20083;-67
2021/05/28 11:14:58;;;;;;;24.60;9.05;;;;;;;29.46;37.87;100468.91;4902980;29;20063;-66
2021/05/28 11:17:26;;;;;;;16.17;7.32;;;;;;;29.44;37.36;100467.72;4919464;29;20052;-66
2021/05/28 11:20:00;;;;;;;18.23;8.13;;;;;;;29.51;37.02;100479.22;4919439;29;20515;-67
2021/05/28 11:22:39;;;;;;;17.08;7.95;;;;;;;29.28;37.13;100450.84;4919419;29;20063;-67
2021/05/28 11:25:17;;;;;;;;;;;;;;;29.05;39.02;100471.38;4920012;29;20434;-66